sensor_id;sensor_type;location;lat;lon;timestamp;P1;durP1;ratioP1;P2;durP2;ratioP2
27367;SDS011;14839;48.106;11.618;2024-03-23T05:01:46;0.77;;;0.70;;
27367;SDS011;14839;48.106;11.618;2024-03-23T05:04:11;1.43;;;0.93;;
27367;SDS011;14839;48.106;11.618;2024-03-23T05:06:37;1.40;;;0.83;;
27367;SDS011;14839;48.106;11.618;2024-03-23T05:09:02;1.43;;;0.90;;
27367;SDS011;14839;48.106;11.618;2024-03-23T05:11:31;0.90;;;0.63;;
27367;SDS011;14839;48.106;11.618;2024-03-23T05:13:58;1.10;;;0.80;;
27367;SDS011;14839;48.106;11.618;2024-03-23T05:16:23;2.97;;;0.80;;
27367;SDS011;14839;48.106;11.618;2024-03-23T05:18:49;1.87;;;0.97;;
27367;SDS011;14839;48.106;11.618;2024-03-23T05:21:14;2.80;;;1.10;;
27367;SDS011;14839;48.106;11.618;2024-03-23T05:23:40;0.90;;;0.60;;
27367;SDS011;14839;48.106;11.618;2024-03-23T05:26:05;3.30;;;1.93;;
27367;SDS011;14839;48.106;11.618;2024-03-23T05:28:31;7.20;;;3.47;;
27367;SDS011;14839;48.106;11.618;2024-03-23T05:30:56;25.27;;;10.63;;
27367;SDS011;14839;48.106;11.618;2024-03-23T05:33:22;159.47;;;38.97;;
27367;SDS011;14839;48.106;11.618;2024-03-23T05:35:55;80.63;;;20.43;;
27367;SDS011;14839;48.106;11.618;2024-03-23T05:38:22;13.70;;;5.43;;
27367;SDS011;14839;48.106;11.618;2024-03-23T05:40:57;6.27;;;2.13;;
27367;SDS011;14839;48.106;11.618;2024-03-23T05:43:23;4.63;;;1.80;;
27367;SDS011;14839;48.106;11.618;2024-03-23T05:45:59;5.07;;;1.90;;
27367;SDS011;14839;48.106;11.618;2024-03-23T05:48:26;3.27;;;1.90;;
27367;SDS011;14839;48.106;11.618;2024-03-23T05:50:52;1.93;;;1.07;;
27367;SDS011;14839;48.106;11.618;2024-03-23T05:53:19;0.83;;;0.80;;
27367;SDS011;14839;48.106;11.618;2024-03-23T05:55:48;2.07;;;0.80;;
27367;SDS011;14839;48.106;11.618;2024-03-23T05:58:14;1.07;;;0.87;;
27367;SDS011;14839;48.106;11.618;2024-03-23T06:00:41;0.70;;;0.70;;
27367;SDS011;14839;48.106;11.618;2024-03-23T06:03:07;4.40;;;0.70;;
27367;SDS011;14839;48.106;11.618;2024-03-23T06:05:33;0.73;;;0.70;;
27367;SDS011;14839;48.106;11.618;2024-03-23T06:07:58;0.60;;;0.60;;
27367;SDS011;14839;48.106;11.618;2024-03-23T06:10:24;0.60;;;0.60;;
27367;SDS011;14839;48.106;11.618;2024-03-23T06:12:49;1.10;;;0.50;;
27367;SDS011;14839;48.106;11.618;2024-03-23T06:15:17;2.37;;;0.80;;
27367;SDS011;14839;48.106;11.618;2024-03-23T06:17:43;1.30;;;0.77;;
27367;SDS011;14839;48.106;11.618;2024-03-23T06:20:09;0.80;;;0.60;;
27367;SDS011;14839;48.106;11.618;2024-03-23T06:22:35;1.70;;;0.70;;
27367;SDS011;14839;48.106;11.618;2024-03-23T06:25:01;3.47;;;0.80;;
27367;SDS011;14839;48.106;11.618;2024-03-23T06:27:26;1.83;;;1.20;;
27367;SDS011;14839;48.106;11.618;2024-03-23T06:29:52;0.93;;;0.60;;
27367;SDS011;14839;48.106;11.618;2024-03-23T06:32:18;1.33;;;0.80;;
27367;SDS011;14839;48.106;11.618;2024-03-23T06:34:43;1.27;;;0.73;;
27367;SDS011;14839;48.106;11.618;2024-03-23T06:37:09;2.40;;;0.90;;
27367;SDS011;14839;48.106;11.618;2024-03-23T06:39:35;1.30;;;0.63;;
27367;SDS011;14839;48.106;11.618;2024-03-23T06:42:01;1.20;;;0.60;;
27367;SDS011;14839;48.106;11.618;2024-03-23T06:44:27;0.70;;;0.57;;
27367;SDS011;14839;48.106;11.618;2024-03-23T06:46:53;0.80;;;0.70;;
27367;SDS011;14839;48.106;11.618;2024-03-23T06:49:18;0.97;;;0.70;;
27367;SDS011;14839;48.106;11.618;2024-03-23T06:51:44;1.60;;;0.80;;
27367;SDS011;14839;48.106;11.618;2024-03-23T06:54:10;0.90;;;0.80;;
27367;SDS011;14839;48.106;11.618;2024-03-23T06:56:36;0.90;;;0.70;;
27367;SDS011;14839;48.106;11.618;2024-03-23T06:59:01;0.73;;;0.70;;
27367;SDS011;14839;48.106;11.618;2024-03-23T07:01:27;1.23;;;0.70;;
27367;SDS011;14839;48.106;11.618;2024-03-23T07:03:54;2.60;;;0.60;;
27367;SDS011;14839;48.106;11.618;2024-03-23T07:06:19;1.73;;;0.67;;
27367;SDS011;14839;48.106;11.618;2024-03-23T07:08:45;1.77;;;0.73;;
27367;SDS011;14839;48.106;11.618;2024-03-23T07:11:11;0.80;;;0.60;;
27367;SDS011;14839;48.106;11.618;2024-03-23T07:13:36;0.90;;;0.80;;
27367;SDS011;14839;48.106;11.618;2024-03-23T07:16:02;1.25;;;0.85;;
27367;SDS011;14839;48.106;11.618;2024-03-23T07:18:27;0.50;;;0.50;;
27367;SDS011;14839;48.106;11.618;2024-03-23T07:20:54;0.60;;;0.60;;
27367;SDS011;14839;48.106;11.618;2024-03-23T07:23:23;0.70;;;0.60;;
27367;SDS011;14839;48.106;11.618;2024-03-23T07:25:58;1.63;;;0.77;;
27367;SDS011;14839;48.106;11.618;2024-03-23T07:28:25;1.77;;;0.90;;
27367;SDS011;14839;48.106;11.618;2024-03-23T07:31:04;1.58;;;0.65;;
27367;SDS011;14839;48.106;11.618;2024-03-23T07:33:31;0.60;;;0.60;;
27367;SDS011;14839;48.106;11.618;2024-03-23T07:35:58;0.50;;;0.50;;
27367;SDS011;14839;48.106;11.618;2024-03-23T07:38:27;0.97;;;0.70;;
27367;SDS011;14839;48.106;11.618;2024-03-23T07:43:35;3.37;;;0.80;;
27367;SDS011;14839;48.106;11.618;2024-03-23T07:46:01;6.37;;;1.03;;
27367;SDS011;14839;48.106;11.618;2024-03-23T07:48:29;1.30;;;0.80;;
27367;SDS011;14839;48.106;11.618;2024-03-23T07:53:28;1.80;;;1.20;;
27367;SDS011;14839;48.106;11.618;2024-03-23T07:56:00;1.40;;;1.00;;
27367;SDS011;14839;48.106;11.618;2024-03-23T07:58:28;2.33;;;0.93;;
27367;SDS011;14839;48.106;11.618;2024-03-23T08:01:01;2.63;;;0.80;;
27367;SDS011;14839;48.106;11.618;2024-03-23T08:03:35;2.70;;;0.97;;
27367;SDS011;14839;48.106;11.618;2024-03-23T08:06:08;1.00;;;0.80;;
27367;SDS011;14839;48.106;11.618;2024-03-23T08:08:34;0.93;;;0.73;;
27367;SDS011;14839;48.106;11.618;2024-03-23T08:11:00;3.63;;;0.90;;
27367;SDS011;14839;48.106;11.618;2024-03-23T08:13:26;1.43;;;1.03;;
27367;SDS011;14839;48.106;11.618;2024-03-23T08:15:52;2.10;;;0.80;;
27367;SDS011;14839;48.106;11.618;2024-03-23T08:18:22;1.53;;;0.60;;
27367;SDS011;14839;48.106;11.618;2024-03-23T08:20:54;3.43;;;1.17;;
27367;SDS011;14839;48.106;11.618;2024-03-23T08:23:29;1.47;;;1.00;;
27367;SDS011;14839;48.106;11.618;2024-03-23T08:26:02;0.90;;;0.70;;
27367;SDS011;14839;48.106;11.618;2024-03-23T08:28:28;0.97;;;0.83;;
27367;SDS011;14839;48.106;11.618;2024-03-23T08:30:54;0.87;;;0.87;;
27367;SDS011;14839;48.106;11.618;2024-03-23T08:33:21;1.10;;;0.80;;
27367;SDS011;14839;48.106;11.618;2024-03-23T08:35:55;1.10;;;0.80;;
27367;SDS011;14839;48.106;11.618;2024-03-23T08:38:22;1.90;;;1.10;;
27367;SDS011;14839;48.106;11.618;2024-03-23T08:40:48;1.93;;;0.93;;
27367;SDS011;14839;48.106;11.618;2024-03-23T08:43:21;1.13;;;0.73;;
27367;SDS011;14839;48.106;11.618;2024-03-23T08:45:46;1.33;;;0.80;;
27367;SDS011;14839;48.106;11.618;2024-03-23T08:48:12;1.40;;;0.70;;
27367;SDS011;14839;48.106;11.618;2024-03-23T08:50:37;1.17;;;1.00;;
27367;SDS011;14839;48.106;11.618;2024-03-23T08:53:03;1.90;;;1.03;;
27367;SDS011;14839;48.106;11.618;2024-03-23T08:55:29;1.70;;;0.70;;
27367;SDS011;14839;48.106;11.618;2024-03-23T08:57:55;2.00;;;0.80;;
27367;SDS011;14839;48.106;11.618;2024-03-23T09:00:21;1.27;;;0.80;;
27367;SDS011;14839;48.106;11.618;2024-03-23T09:02:50;1.33;;;0.90;;
27367;SDS011;14839;48.106;11.618;2024-03-23T09:05:15;2.40;;;1.33;;
27367;SDS011;14839;48.106;11.618;2024-03-23T09:07:41;2.00;;;1.00;;
27367;SDS011;14839;48.106;11.618;2024-03-23T09:10:06;0.97;;;0.70;;
27367;SDS011;14839;48.106;11.618;2024-03-23T09:12:34;1.87;;;1.13;;
27367;SDS011;14839;48.106;11.618;2024-03-23T09:15:00;5.13;;;1.40;;
27367;SDS011;14839;48.106;11.618;2024-03-23T09:17:25;3.00;;;1.30;;
27367;SDS011;14839;48.106;11.618;2024-03-23T09:19:51;2.37;;;1.10;;
27367;SDS011;14839;48.106;11.618;2024-03-23T09:22:16;3.10;;;1.20;;
27367;SDS011;14839;48.106;11.618;2024-03-23T09:24:42;1.30;;;1.20;;
27367;SDS011;14839;48.106;11.618;2024-03-23T09:27:07;2.83;;;0.93;;
27367;SDS011;14839;48.106;11.618;2024-03-23T09:29:33;1.27;;;1.00;;
27367;SDS011;14839;48.106;11.618;2024-03-23T09:31:58;1.50;;;1.07;;
27367;SDS011;14839;48.106;11.618;2024-03-23T09:34:24;2.27;;;1.43;;
27367;SDS011;14839;48.106;11.618;2024-03-23T09:36:53;1.33;;;1.07;;
27367;SDS011;14839;48.106;11.618;2024-03-23T09:39:18;1.37;;;1.00;;
27367;SDS011;14839;48.106;11.618;2024-03-23T09:41:44;3.10;;;1.03;;
27367;SDS011;14839;48.106;11.618;2024-03-23T09:44:10;0.60;;;0.60;;
27367;SDS011;14839;48.106;11.618;2024-03-23T09:46:36;4.53;;;0.87;;
27367;SDS011;14839;48.106;11.618;2024-03-23T09:49:04;0.90;;;0.60;;
27367;SDS011;14839;48.106;11.618;2024-03-23T09:51:33;0.87;;;0.43;;
27367;SDS011;14839;48.106;11.618;2024-03-23T09:54:01;1.70;;;0.70;;
27367;SDS011;14839;48.106;11.618;2024-03-23T09:56:26;3.80;;;0.33;;
27367;SDS011;14839;48.106;11.618;2024-03-23T09:58:52;4.40;;;0.80;;
27367;SDS011;14839;48.106;11.618;2024-03-23T10:01:26;0.93;;;0.67;;
27367;SDS011;14839;48.106;11.618;2024-03-23T10:03:51;0.70;;;0.50;;
27367;SDS011;14839;48.106;11.618;2024-03-23T10:06:17;0.53;;;0.40;;
27367;SDS011;14839;48.106;11.618;2024-03-23T10:08:47;0.30;;;0.30;;
27367;SDS011;14839;48.106;11.618;2024-03-23T10:11:13;2.80;;;0.60;;
27367;SDS011;14839;48.106;11.618;2024-03-23T10:13:43;0.43;;;0.37;;
27367;SDS011;14839;48.106;11.618;2024-03-23T10:16:11;0.70;;;0.40;;
27367;SDS011;14839;48.106;11.618;2024-03-23T10:18:37;1.23;;;0.57;;
27367;SDS011;14839;48.106;11.618;2024-03-23T10:23:33;4.00;;;0.70;;
27367;SDS011;14839;48.106;11.618;2024-03-23T10:26:19;0.77;;;0.50;;
27367;SDS011;14839;48.106;11.618;2024-03-23T10:28:59;2.20;;;0.83;;
27367;SDS011;14839;48.106;11.618;2024-03-23T10:31:26;0.77;;;0.40;;
27367;SDS011;14839;48.106;11.618;2024-03-23T10:33:56;0.43;;;0.40;;
27367;SDS011;14839;48.106;11.618;2024-03-23T10:36:22;1.20;;;0.47;;
27367;SDS011;14839;48.106;11.618;2024-03-23T10:38:52;0.43;;;0.40;;
27367;SDS011;14839;48.106;11.618;2024-03-23T10:41:19;0.87;;;0.40;;
27367;SDS011;14839;48.106;11.618;2024-03-23T10:43:45;0.50;;;0.40;;
27367;SDS011;14839;48.106;11.618;2024-03-23T10:46:11;0.50;;;0.37;;
27367;SDS011;14839;48.106;11.618;2024-03-23T10:48:37;0.57;;;0.40;;
27367;SDS011;14839;48.106;11.618;2024-03-23T10:51:03;0.63;;;0.30;;
27367;SDS011;14839;48.106;11.618;2024-03-23T10:53:31;0.60;;;0.30;;
27367;SDS011;14839;48.106;11.618;2024-03-23T10:55:58;1.23;;;0.40;;
27367;SDS011;14839;48.106;11.618;2024-03-23T10:58:26;0.87;;;0.30;;
27367;SDS011;14839;48.106;11.618;2024-03-23T11:01:03;0.70;;;0.40;;
27367;SDS011;14839;48.106;11.618;2024-03-23T11:03:29;0.20;;;0.20;;
27367;SDS011;14839;48.106;11.618;2024-03-23T11:05:56;1.47;;;0.40;;
27367;SDS011;14839;48.106;11.618;2024-03-23T11:11:16;0.50;;;0.50;;
27367;SDS011;14839;48.106;11.618;2024-03-23T11:13:47;0.30;;;0.30;;
27367;SDS011;14839;48.106;11.618;2024-03-23T11:16:27;0.37;;;0.20;;
27367;SDS011;14839;48.106;11.618;2024-03-23T11:22:03;0.50;;;0.20;;
27367;SDS011;14839;48.106;11.618;2024-03-23T11:24:33;1.70;;;0.43;;
27367;SDS011;14839;48.106;11.618;2024-03-23T11:26:59;1.43;;;0.40;;
27367;SDS011;14839;48.106;11.618;2024-03-23T11:29:26;1.07;;;0.50;;
27367;SDS011;14839;48.106;11.618;2024-03-23T11:31:54;1.30;;;1.20;;
27367;SDS011;14839;48.106;11.618;2024-03-23T11:34:20;0.93;;;0.70;;
27367;SDS011;14839;48.106;11.618;2024-03-23T11:36:47;1.10;;;0.77;;
27367;SDS011;14839;48.106;11.618;2024-03-23T11:41:45;3.63;;;2.73;;
27367;SDS011;14839;48.106;11.618;2024-03-23T11:44:18;9.73;;;5.70;;
27367;SDS011;14839;48.106;11.618;2024-03-23T11:46:45;1.13;;;1.00;;
27367;SDS011;14839;48.106;11.618;2024-03-23T11:49:24;2.03;;;1.20;;
27367;SDS011;14839;48.106;11.618;2024-03-23T11:51:54;3.57;;;2.60;;
27367;SDS011;14839;48.106;11.618;2024-03-23T11:54:24;1.00;;;0.80;;
27367;SDS011;14839;48.106;11.618;2024-03-23T11:56:55;4.83;;;3.43;;
27367;SDS011;14839;48.106;11.618;2024-03-23T12:02:00;1.13;;;0.70;;
27367;SDS011;14839;48.106;11.618;2024-03-23T12:04:30;4.43;;;2.57;;
27367;SDS011;14839;48.106;11.618;2024-03-23T12:07:10;0.93;;;0.73;;
27367;SDS011;14839;48.106;11.618;2024-03-23T12:09:40;2.80;;;0.90;;
27367;SDS011;14839;48.106;11.618;2024-03-23T12:12:07;1.90;;;1.53;;
27367;SDS011;14839;48.106;11.618;2024-03-23T12:14:34;5.63;;;3.67;;
27367;SDS011;14839;48.106;11.618;2024-03-23T12:17:12;1.90;;;0.80;;
27367;SDS011;14839;48.106;11.618;2024-03-23T12:19:39;0.70;;;0.70;;
27367;SDS011;14839;48.106;11.618;2024-03-23T12:22:06;3.43;;;1.20;;
27367;SDS011;14839;48.106;11.618;2024-03-23T12:24:32;2.83;;;0.83;;
27367;SDS011;14839;48.106;11.618;2024-03-23T12:27:04;0.93;;;0.80;;
27367;SDS011;14839;48.106;11.618;2024-03-23T12:29:33;1.30;;;0.93;;
27367;SDS011;14839;48.106;11.618;2024-03-23T12:32:00;1.70;;;1.10;;
27367;SDS011;14839;48.106;11.618;2024-03-23T12:34:26;2.83;;;0.83;;
27367;SDS011;14839;48.106;11.618;2024-03-23T12:36:52;1.27;;;0.93;;
27367;SDS011;14839;48.106;11.618;2024-03-23T12:39:18;2.80;;;1.10;;
27367;SDS011;14839;48.106;11.618;2024-03-23T12:41:46;2.73;;;1.13;;
27367;SDS011;14839;48.106;11.618;2024-03-23T12:44:12;2.50;;;0.53;;
27367;SDS011;14839;48.106;11.618;2024-03-23T12:46:41;2.37;;;0.97;;
27367;SDS011;14839;48.106;11.618;2024-03-23T12:49:07;1.47;;;0.93;;
27367;SDS011;14839;48.106;11.618;2024-03-23T12:51:33;2.53;;;0.90;;
27367;SDS011;14839;48.106;11.618;2024-03-23T12:53:59;3.23;;;0.70;;
27367;SDS011;14839;48.106;11.618;2024-03-23T12:56:24;3.60;;;0.87;;
27367;SDS011;14839;48.106;11.618;2024-03-23T12:58:50;1.00;;;0.73;;
27367;SDS011;14839;48.106;11.618;2024-03-23T13:01:20;2.07;;;0.97;;
27367;SDS011;14839;48.106;11.618;2024-03-23T13:03:46;1.90;;;0.83;;
27367;SDS011;14839;48.106;11.618;2024-03-23T13:06:12;2.33;;;0.80;;
27367;SDS011;14839;48.106;11.618;2024-03-23T13:08:38;2.77;;;1.23;;
27367;SDS011;14839;48.106;11.618;2024-03-23T13:11:05;2.07;;;0.83;;
27367;SDS011;14839;48.106;11.618;2024-03-23T13:13:31;2.60;;;0.63;;
27367;SDS011;14839;48.106;11.618;2024-03-23T13:15:58;2.40;;;0.93;;
27367;SDS011;14839;48.106;11.618;2024-03-23T13:18:23;2.40;;;0.70;;
27367;SDS011;14839;48.106;11.618;2024-03-23T13:20:49;1.93;;;1.03;;
27367;SDS011;14839;48.106;11.618;2024-03-23T13:23:15;2.63;;;0.73;;
27367;SDS011;14839;48.106;11.618;2024-03-23T13:25:40;2.30;;;0.70;;
27367;SDS011;14839;48.106;11.618;2024-03-23T13:28:06;2.63;;;1.03;;
27367;SDS011;14839;48.106;11.618;2024-03-23T13:30:32;0.77;;;0.50;;
27367;SDS011;14839;48.106;11.618;2024-03-23T13:32:58;1.50;;;0.67;;
27367;SDS011;14839;48.106;11.618;2024-03-23T13:35:23;5.10;;;0.83;;
27367;SDS011;14839;48.106;11.618;2024-03-23T13:37:49;5.90;;;1.00;;
27367;SDS011;14839;48.106;11.618;2024-03-23T13:40:14;2.90;;;0.83;;
27367;SDS011;14839;48.106;11.618;2024-03-23T13:42:40;1.07;;;0.73;;
27367;SDS011;14839;48.106;11.618;2024-03-23T13:45:06;2.27;;;0.90;;
27367;SDS011;14839;48.106;11.618;2024-03-23T13:47:31;3.93;;;0.77;;
27367;SDS011;14839;48.106;11.618;2024-03-23T13:49:57;2.17;;;0.90;;
27367;SDS011;14839;48.106;11.618;2024-03-23T13:52:23;0.93;;;0.60;;
27367;SDS011;14839;48.106;11.618;2024-03-23T13:54:50;1.50;;;0.97;;
27367;SDS011;14839;48.106;11.618;2024-03-23T13:57:17;3.00;;;0.90;;
27367;SDS011;14839;48.106;11.618;2024-03-23T13:59:45;4.07;;;1.03;;
27367;SDS011;14839;48.106;11.618;2024-03-23T14:02:11;0.80;;;0.50;;
27367;SDS011;14839;48.106;11.618;2024-03-23T14:04:39;1.57;;;1.10;;
27367;SDS011;14839;48.106;11.618;2024-03-23T14:07:05;3.70;;;0.90;;
27367;SDS011;14839;48.106;11.618;2024-03-23T14:09:32;8.20;;;1.50;;
27367;SDS011;14839;48.106;11.618;2024-03-23T14:11:57;3.90;;;1.70;;
27367;SDS011;14839;48.106;11.618;2024-03-23T14:14:25;1.40;;;1.07;;
27367;SDS011;14839;48.106;11.618;2024-03-23T14:16:50;1.73;;;1.00;;
27367;SDS011;14839;48.106;11.618;2024-03-23T14:19:16;5.40;;;0.87;;
27367;SDS011;14839;48.106;11.618;2024-03-23T14:21:41;1.20;;;1.00;;
27367;SDS011;14839;48.106;11.618;2024-03-23T14:24:07;1.60;;;0.90;;
27367;SDS011;14839;48.106;11.618;2024-03-23T14:26:34;2.33;;;0.97;;
27367;SDS011;14839;48.106;11.618;2024-03-23T14:29:00;1.63;;;1.00;;
27367;SDS011;14839;48.106;11.618;2024-03-23T14:31:26;2.37;;;1.50;;
27367;SDS011;14839;48.106;11.618;2024-03-23T14:33:51;2.87;;;1.30;;
27367;SDS011;14839;48.106;11.618;2024-03-23T14:36:17;2.17;;;1.20;;
27367;SDS011;14839;48.106;11.618;2024-03-23T14:38:42;2.07;;;1.33;;
27367;SDS011;14839;48.106;11.618;2024-03-23T14:41:12;1.53;;;0.93;;
27367;SDS011;14839;48.106;11.618;2024-03-23T14:43:38;2.60;;;1.50;;
27367;SDS011;14839;48.106;11.618;2024-03-23T14:46:07;2.40;;;1.43;;
27367;SDS011;14839;48.106;11.618;2024-03-23T14:48:41;2.30;;;1.37;;
27367;SDS011;14839;48.106;11.618;2024-03-23T14:51:07;6.00;;;1.30;;
27367;SDS011;14839;48.106;11.618;2024-03-23T14:53:34;7.10;;;1.50;;
27367;SDS011;14839;48.106;11.618;2024-03-23T14:56:01;5.50;;;1.30;;
27367;SDS011;14839;48.106;11.618;2024-03-23T14:58:28;3.70;;;1.40;;
27367;SDS011;14839;48.106;11.618;2024-03-23T15:01:00;3.37;;;1.47;;
27367;SDS011;14839;48.106;11.618;2024-03-23T15:03:27;1.27;;;1.07;;
27367;SDS011;14839;48.106;11.618;2024-03-23T15:05:56;2.33;;;0.80;;
27367;SDS011;14839;48.106;11.618;2024-03-23T15:08:23;8.77;;;1.73;;
27367;SDS011;14839;48.106;11.618;2024-03-23T15:10:49;4.93;;;1.00;;
27367;SDS011;14839;48.106;11.618;2024-03-23T15:13:15;0.83;;;0.60;;
27367;SDS011;14839;48.106;11.618;2024-03-23T15:15:41;3.07;;;1.63;;
27367;SDS011;14839;48.106;11.618;2024-03-23T15:18:13;2.07;;;1.07;;
27367;SDS011;14839;48.106;11.618;2024-03-23T15:20:51;1.97;;;0.90;;
27367;SDS011;14839;48.106;11.618;2024-03-23T15:23:17;1.60;;;0.97;;
27367;SDS011;14839;48.106;11.618;2024-03-23T15:25:43;1.03;;;0.67;;
27367;SDS011;14839;48.106;11.618;2024-03-23T15:28:09;4.17;;;1.67;;
27367;SDS011;14839;48.106;11.618;2024-03-23T15:30:34;3.30;;;1.30;;
27367;SDS011;14839;48.106;11.618;2024-03-23T15:33:00;2.13;;;1.30;;
27367;SDS011;14839;48.106;11.618;2024-03-23T15:35:25;2.87;;;1.93;;
27367;SDS011;14839;48.106;11.618;2024-03-23T15:37:51;3.07;;;1.87;;
27367;SDS011;14839;48.106;11.618;2024-03-23T15:40:17;2.30;;;1.00;;
27367;SDS011;14839;48.106;11.618;2024-03-23T15:42:42;2.40;;;1.00;;
27367;SDS011;14839;48.106;11.618;2024-03-23T15:45:08;2.70;;;1.30;;
27367;SDS011;14839;48.106;11.618;2024-03-23T15:47:37;1.30;;;0.73;;
27367;SDS011;14839;48.106;11.618;2024-03-23T15:50:03;0.60;;;0.53;;
27367;SDS011;14839;48.106;11.618;2024-03-23T15:52:33;1.57;;;1.00;;
27367;SDS011;14839;48.106;11.618;2024-03-23T15:55:00;1.67;;;0.97;;
27367;SDS011;14839;48.106;11.618;2024-03-23T15:57:26;4.43;;;0.90;;
27367;SDS011;14839;48.106;11.618;2024-03-23T15:59:52;4.37;;;1.00;;
27367;SDS011;14839;48.106;11.618;2024-03-23T16:02:17;1.50;;;1.00;;
27367;SDS011;14839;48.106;11.618;2024-03-23T16:04:43;4.27;;;0.93;;
27367;SDS011;14839;48.106;11.618;2024-03-23T16:07:10;1.83;;;1.00;;
27367;SDS011;14839;48.106;11.618;2024-03-23T16:09:36;4.93;;;1.30;;
27367;SDS011;14839;48.106;11.618;2024-03-23T16:12:02;1.17;;;0.90;;
27367;SDS011;14839;48.106;11.618;2024-03-23T16:14:28;2.73;;;0.80;;
27367;SDS011;14839;48.106;11.618;2024-03-23T16:16:54;1.47;;;0.80;;
27367;SDS011;14839;48.106;11.618;2024-03-23T16:19:20;1.47;;;1.00;;
27367;SDS011;14839;48.106;11.618;2024-03-23T16:21:47;6.33;;;1.57;;
27367;SDS011;14839;48.106;11.618;2024-03-23T16:24:12;1.67;;;0.70;;
27367;SDS011;14839;48.106;11.618;2024-03-23T16:26:38;1.70;;;0.87;;
27367;SDS011;14839;48.106;11.618;2024-03-23T16:29:04;2.50;;;0.90;;
27367;SDS011;14839;48.106;11.618;2024-03-23T16:31:29;1.70;;;0.97;;
27367;SDS011;14839;48.106;11.618;2024-03-23T16:33:55;2.33;;;1.43;;
27367;SDS011;14839;48.106;11.618;2024-03-23T16:36:20;1.60;;;1.00;;
27367;SDS011;14839;48.106;11.618;2024-03-23T16:38:46;1.33;;;0.90;;
27367;SDS011;14839;48.106;11.618;2024-03-23T16:41:13;1.93;;;0.83;;
27367;SDS011;14839;48.106;11.618;2024-03-23T16:43:42;2.73;;;1.17;;
27367;SDS011;14839;48.106;11.618;2024-03-23T16:46:08;4.50;;;1.20;;
27367;SDS011;14839;48.106;11.618;2024-03-23T16:48:36;0.90;;;0.73;;
27367;SDS011;14839;48.106;11.618;2024-03-23T16:51:06;1.20;;;1.00;;
27367;SDS011;14839;48.106;11.618;2024-03-23T16:53:32;5.50;;;1.10;;
27367;SDS011;14839;48.106;11.618;2024-03-23T16:55:59;1.10;;;1.00;;
27367;SDS011;14839;48.106;11.618;2024-03-23T16:58:26;1.63;;;0.70;;
27367;SDS011;14839;48.106;11.618;2024-03-23T17:00:54;0.67;;;0.60;;
27367;SDS011;14839;48.106;11.618;2024-03-23T17:03:23;5.33;;;1.07;;
27367;SDS011;14839;48.106;11.618;2024-03-23T17:05:49;3.83;;;1.43;;
27367;SDS011;14839;48.106;11.618;2024-03-23T17:08:18;1.17;;;0.77;;
27367;SDS011;14839;48.106;11.618;2024-03-23T17:10:44;2.10;;;1.43;;
27367;SDS011;14839;48.106;11.618;2024-03-23T17:13:11;1.50;;;0.93;;
27367;SDS011;14839;48.106;11.618;2024-03-23T17:15:44;1.73;;;0.90;;
27367;SDS011;14839;48.106;11.618;2024-03-23T17:18:10;1.83;;;0.83;;
27367;SDS011;14839;48.106;11.618;2024-03-23T17:20:36;1.57;;;0.97;;
27367;SDS011;14839;48.106;11.618;2024-03-23T17:23:02;1.37;;;0.87;;
27367;SDS011;14839;48.106;11.618;2024-03-23T17:25:28;5.13;;;1.40;;
27367;SDS011;14839;48.106;11.618;2024-03-23T17:27:53;2.00;;;0.93;;
27367;SDS011;14839;48.106;11.618;2024-03-23T17:30:19;1.10;;;0.90;;
27367;SDS011;14839;48.106;11.618;2024-03-23T17:32:45;5.47;;;1.07;;
27367;SDS011;14839;48.106;11.618;2024-03-23T17:35:11;1.07;;;0.67;;
27367;SDS011;14839;48.106;11.618;2024-03-23T17:37:37;1.07;;;0.70;;
27367;SDS011;14839;48.106;11.618;2024-03-23T17:40:04;0.40;;;0.40;;
27367;SDS011;14839;48.106;11.618;2024-03-23T17:42:35;0.70;;;0.60;;
27367;SDS011;14839;48.106;11.618;2024-03-23T17:45:02;0.50;;;0.50;;
27367;SDS011;14839;48.106;11.618;2024-03-23T17:47:36;0.70;;;0.30;;
27367;SDS011;14839;48.106;11.618;2024-03-23T17:50:02;2.17;;;0.63;;
27367;SDS011;14839;48.106;11.618;2024-03-23T17:52:28;1.53;;;0.50;;
27367;SDS011;14839;48.106;11.618;2024-03-23T17:54:54;0.93;;;0.40;;
27367;SDS011;14839;48.106;11.618;2024-03-23T17:57:20;0.33;;;0.20;;
27367;SDS011;14839;48.106;11.618;2024-03-23T17:59:46;0.50;;;0.40;;
27367;SDS011;14839;48.106;11.618;2024-03-23T18:02:13;0.50;;;0.40;;
27367;SDS011;14839;48.106;11.618;2024-03-23T18:04:40;0.47;;;0.40;;
27367;SDS011;14839;48.106;11.618;2024-03-23T18:07:06;3.27;;;0.57;;
27367;SDS011;14839;48.106;11.618;2024-03-23T18:09:32;1.80;;;0.47;;
27367;SDS011;14839;48.106;11.618;2024-03-23T18:11:57;3.53;;;0.70;;
27367;SDS011;14839;48.106;11.618;2024-03-23T18:14:23;0.90;;;0.60;;
27367;SDS011;14839;48.106;11.618;2024-03-23T18:16:48;1.33;;;0.70;;
27367;SDS011;14839;48.106;11.618;2024-03-23T18:19:14;1.27;;;0.50;;
27367;SDS011;14839;48.106;11.618;2024-03-23T18:21:40;1.57;;;0.77;;
27367;SDS011;14839;48.106;11.618;2024-03-23T18:24:06;0.83;;;0.50;;
27367;SDS011;14839;48.106;11.618;2024-03-23T18:26:31;1.90;;;0.57;;
27367;SDS011;14839;48.106;11.618;2024-03-23T18:28:57;0.60;;;0.60;;
27367;SDS011;14839;48.106;11.618;2024-03-23T18:31:22;1.23;;;0.40;;
27367;SDS011;14839;48.106;11.618;2024-03-23T18:33:48;0.40;;;0.30;;
27367;SDS011;14839;48.106;11.618;2024-03-23T18:36:14;0.87;;;0.50;;
27367;SDS011;14839;48.106;11.618;2024-03-23T18:38:39;4.90;;;0.47;;
27367;SDS011;14839;48.106;11.618;2024-03-23T18:41:05;0.77;;;0.30;;
27367;SDS011;14839;48.106;11.618;2024-03-23T18:43:30;0.53;;;0.43;;
27367;SDS011;14839;48.106;11.618;2024-03-23T18:45:57;0.77;;;0.43;;
27367;SDS011;14839;48.106;11.618;2024-03-23T18:48:23;0.47;;;0.30;;
27367;SDS011;14839;48.106;11.618;2024-03-23T18:50:49;1.20;;;0.80;;
27367;SDS011;14839;48.106;11.618;2024-03-23T18:53:15;0.50;;;0.47;;
27367;SDS011;14839;48.106;11.618;2024-03-23T18:55:41;2.47;;;0.53;;
27367;SDS011;14839;48.106;11.618;2024-03-23T18:58:20;1.17;;;0.40;;
27367;SDS011;14839;48.106;11.618;2024-03-23T19:00:45;1.60;;;0.40;;
27367;SDS011;14839;48.106;11.618;2024-03-23T19:03:11;1.67;;;0.37;;
27367;SDS011;14839;48.106;11.618;2024-03-23T19:05:37;0.70;;;0.33;;
27367;SDS011;14839;48.106;11.618;2024-03-23T19:08:03;1.00;;;0.40;;
27367;SDS011;14839;48.106;11.618;2024-03-23T19:10:29;1.67;;;0.50;;
27367;SDS011;14839;48.106;11.618;2024-03-23T19:12:54;0.77;;;0.33;;
27367;SDS011;14839;48.106;11.618;2024-03-23T19:15:20;0.93;;;0.67;;
27367;SDS011;14839;48.106;11.618;2024-03-23T19:17:46;1.03;;;0.57;;
27367;SDS011;14839;48.106;11.618;2024-03-23T19:20:11;1.80;;;0.40;;
27367;SDS011;14839;48.106;11.618;2024-03-23T19:22:39;0.50;;;0.40;;
27367;SDS011;14839;48.106;11.618;2024-03-23T19:25:04;5.50;;;1.70;;
27367;SDS011;14839;48.106;11.618;2024-03-23T19:27:34;5.03;;;1.80;;
27367;SDS011;14839;48.106;11.618;2024-03-23T19:30:04;2.13;;;1.30;;
27367;SDS011;14839;48.106;11.618;2024-03-23T19:32:31;2.30;;;1.10;;
27367;SDS011;14839;48.106;11.618;2024-03-23T19:34:57;3.60;;;1.30;;
27367;SDS011;14839;48.106;11.618;2024-03-23T19:37:22;2.60;;;1.23;;
27367;SDS011;14839;48.106;11.618;2024-03-23T19:39:48;2.40;;;0.90;;
27367;SDS011;14839;48.106;11.618;2024-03-23T19:42:13;1.97;;;1.13;;
27367;SDS011;14839;48.106;11.618;2024-03-23T19:44:40;1.23;;;0.90;;
27367;SDS011;14839;48.106;11.618;2024-03-23T19:47:06;4.57;;;1.57;;
27367;SDS011;14839;48.106;11.618;2024-03-23T19:49:32;2.73;;;1.17;;
27367;SDS011;14839;48.106;11.618;2024-03-23T19:51:57;3.67;;;1.03;;